sensor_id;sensor_type;location;lat;lon;timestamp;pressure;altitude;pressure_sealevel;temperature;humidity
40918;BME280;26644;50.248;19.032;2023-08-06T00:02:30;96893.78;;;19.39;91.10
40918;BME280;26644;50.248;19.032;2023-08-06T00:05:34;96890.59;;;19.40;91.02
40918;BME280;26644;50.248;19.032;2023-08-06T00:08:39;96908.53;;;19.43;91.04
40918;BME280;26644;50.248;19.032;2023-08-06T00:11:46;96883.94;;;19.45;90.70
40918;BME280;26644;50.248;19.032;2023-08-06T00:14:52;96862.06;;;19.43;90.94
40918;BME280;26644;50.248;19.032;2023-08-06T00:17:56;96848.28;;;19.54;90.60
40918;BME280;26644;50.248;19.032;2023-08-06T00:21:01;96829.63;;;19.58;90.51
40918;BME280;26644;50.248;19.032;2023-08-06T00:24:05;96822.13;;;19.63;90.06
40918;BME280;26644;50.248;19.032;2023-08-06T00:27:13;96793.50;;;19.62;89.91
40918;BME280;26644;50.248;19.032;2023-08-06T00:30:17;96758.84;;;19.56;89.89
40918;BME280;26644;50.248;19.032;2023-08-06T00:33:22;96736.63;;;19.63;89.74
40918;BME280;26644;50.248;19.032;2023-08-06T00:36:27;96695.25;;;19.62;89.62
40918;BME280;26644;50.248;19.032;2023-08-06T00:39:32;96683.41;;;19.68;89.81
40918;BME280;26644;50.248;19.032;2023-08-06T00:42:39;96672.22;;;19.65;89.34
40918;BME280;26644;50.248;19.032;2023-08-06T00:45:46;96711.19;;;19.61;89.60
40918;BME280;26644;50.248;19.032;2023-08-06T00:48:51;96796.63;;;19.57;90.15
40918;BME280;26644;50.248;19.032;2023-08-06T00:51:56;96754.03;;;19.53;90.36
40918;BME280;26644;50.248;19.032;2023-08-06T00:55:02;96716.31;;;19.59;90.32
40918;BME280;26644;50.248;19.032;2023-08-06T00:58:10;96708.34;;;19.57;90.08
40918;BME280;26644;50.248;19.032;2023-08-06T01:01:15;96699.56;;;19.55;90.21
40918;BME280;26644;50.248;19.032;2023-08-06T01:04:19;96693.22;;;19.55;90.34
40918;BME280;26644;50.248;19.032;2023-08-06T01:07:37;96693.22;;;19.55;90.45
40918;BME280;26644;50.248;19.032;2023-08-06T01:11:05;96707.97;;;19.59;90.45
40918;BME280;26644;50.248;19.032;2023-08-06T01:14:30;96717.50;;;19.58;89.83
40918;BME280;26644;50.248;19.032;2023-08-06T01:17:45;96711.91;;;19.58;89.82
40918;BME280;26644;50.248;19.032;2023-08-06T01:20:53;96711.91;;;19.54;90.33
40918;BME280;26644;50.248;19.032;2023-08-06T01:23:57;96719.44;;;19.54;90.12
40918;BME280;26644;50.248;19.032;2023-08-06T01:27:08;96694.38;;;19.54;90.27
40918;BME280;26644;50.248;19.032;2023-08-06T01:30:19;96676.97;;;19.60;90.28
40918;BME280;26644;50.248;19.032;2023-08-06T01:33:32;96655.53;;;19.65;90.18
40918;BME280;26644;50.248;19.032;2023-08-06T01:36:40;96640.09;;;19.71;89.49
40918;BME280;26644;50.248;19.032;2023-08-06T01:39:46;96625.38;;;19.70;89.24
40918;BME280;26644;50.248;19.032;2023-08-06T01:42:51;96620.19;;;19.69;88.88
40918;BME280;26644;50.248;19.032;2023-08-06T01:45:56;96615.47;;;19.73;89.22
40918;BME280;26644;50.248;19.032;2023-08-06T01:49:00;96620.22;;;19.72;89.21
40918;BME280;26644;50.248;19.032;2023-08-06T01:52:08;96626.19;;;19.74;88.67
40918;BME280;26644;50.248;19.032;2023-08-06T01:55:12;96626.59;;;19.73;88.57
40918;BME280;26644;50.248;19.032;2023-08-06T01:58:17;96642.91;;;19.74;88.54
40918;BME280;26644;50.248;19.032;2023-08-06T02:01:21;96644.03;;;19.70;88.60
40918;BME280;26644;50.248;19.032;2023-08-06T02:04:27;96644.03;;;19.70;89.02
40918;BME280;26644;50.248;19.032;2023-08-06T02:07:33;96652.41;;;19.70;89.07
40918;BME280;26644;50.248;19.032;2023-08-06T02:10:39;96636.91;;;19.69;89.27
40918;BME280;26644;50.248;19.032;2023-08-06T02:13:43;96643.69;;;19.71;89.27
40918;BME280;26644;50.248;19.032;2023-08-06T02:16:53;96636.13;;;19.72;88.96
40918;BME280;26644;50.248;19.032;2023-08-06T02:20:00;96627.34;;;19.70;88.91
40918;BME280;26644;50.248;19.032;2023-08-06T02:23:08;96629.34;;;19.69;89.04
40918;BME280;26644;50.248;19.032;2023-08-06T02:26:12;96631.34;;;19.69;89.18
40918;BME280;26644;50.248;19.032;2023-08-06T02:29:18;96622.56;;;19.67;89.45
40918;BME280;26644;50.248;19.032;2023-08-06T02:32:22;96631.00;;;19.77;89.26
40918;BME280;26644;50.248;19.032;2023-08-06T02:35:28;96638.59;;;19.84;88.74
40918;BME280;26644;50.248;19.032;2023-08-06T02:38:34;96624.66;;;19.81;88.25
40918;BME280;26644;50.248;19.032;2023-08-06T02:41:39;96611.94;;;19.83;88.61
40918;BME280;26644;50.248;19.032;2023-08-06T02:44:44;96609.63;;;19.92;88.56
40918;BME280;26644;50.248;19.032;2023-08-06T02:47:49;96612.44;;;19.96;88.25
40918;BME280;26644;50.248;19.032;2023-08-06T02:50:57;96602.13;;;19.97;87.73
40918;BME280;26644;50.248;19.032;2023-08-06T02:54:08;96600.16;;;20.01;87.54
40918;BME280;26644;50.248;19.032;2023-08-06T02:57:12;96604.44;;;19.91;87.41
40918;BME280;26644;50.248;19.032;2023-08-06T03:00:17;96600.50;;;19.92;87.90
40918;BME280;26644;50.248;19.032;2023-08-06T03:03:22;96591.38;;;19.99;87.49
40918;BME280;26644;50.248;19.032;2023-08-06T03:06:32;96584.22;;;19.98;87.08
40918;BME280;26644;50.248;19.032;2023-08-06T03:09:40;96589.03;;;20.01;87.20
40918;BME280;26644;50.248;19.032;2023-08-06T03:12:45;96604.16;;;20.03;87.33
40918;BME280;26644;50.248;19.032;2023-08-06T03:15:53;96594.59;;;20.04;87.01
40918;BME280;26644;50.248;19.032;2023-08-06T03:19:01;96587.03;;;20.01;87.31
40918;BME280;26644;50.248;19.032;2023-08-06T03:22:05;96557.84;;;19.84;87.61
40918;BME280;26644;50.248;19.032;2023-08-06T03:25:15;96573.50;;;20.00;87.00
40918;BME280;26644;50.248;19.032;2023-08-06T03:28:23;96565.06;;;19.89;87.39
40918;BME280;26644;50.248;19.032;2023-08-06T03:31:29;96575.75;;;19.80;87.97
40918;BME280;26644;50.248;19.032;2023-08-06T03:34:34;96578.50;;;19.76;88.81
40918;BME280;26644;50.248;19.032;2023-08-06T03:37:39;96571.66;;;19.70;88.92
40918;BME280;26644;50.248;19.032;2023-08-06T03:40:46;96568.88;;;19.70;89.59
40918;BME280;26644;50.248;19.032;2023-08-06T03:43:51;96560.50;;;19.63;89.79
40918;BME280;26644;50.248;19.032;2023-08-06T03:47:00;96547.72;;;19.54;90.26
40918;BME280;26644;50.248;19.032;2023-08-06T03:50:05;96553.66;;;19.56;90.83
40918;BME280;26644;50.248;19.032;2023-08-06T03:53:10;96540.56;;;19.57;90.99
40918;BME280;26644;50.248;19.032;2023-08-06T03:56:18;96531.84;;;19.58;91.25
40918;BME280;26644;50.248;19.032;2023-08-06T03:59:23;96533.06;;;19.65;91.24
40918;BME280;26644;50.248;19.032;2023-08-06T04:02:28;96534.25;;;19.64;90.71
40918;BME280;26644;50.248;19.032;2023-08-06T04:05:32;96544.22;;;19.68;90.90
40918;BME280;26644;50.248;19.032;2023-08-06T04:08:37;96537.09;;;19.71;90.78
40918;BME280;26644;50.248;19.032;2023-08-06T04:11:45;96536.72;;;19.76;90.36
40918;BME280;26644;50.248;19.032;2023-08-06T04:14:50;96536.38;;;19.81;89.95
40918;BME280;26644;50.248;19.032;2023-08-06T04:17:55;96529.56;;;19.75;89.54
40918;BME280;26644;50.248;19.032;2023-08-06T04:21:01;96534.38;;;19.78;89.74
40918;BME280;26644;50.248;19.032;2023-08-06T04:24:06;96545.13;;;19.80;90.17
40918;BME280;26644;50.248;19.032;2023-08-06T04:27:15;96556.22;;;19.76;90.03
40918;BME280;26644;50.248;19.032;2023-08-06T04:30:21;96553.78;;;19.71;89.84
40918;BME280;26644;50.248;19.032;2023-08-06T04:33:26;96529.88;;;19.63;90.54
40918;BME280;26644;50.248;19.032;2023-08-06T04:36:33;96520.75;;;19.66;91.05
40918;BME280;26644;50.248;19.032;2023-08-06T04:39:38;96514.78;;;19.64;90.80
40918;BME280;26644;50.248;19.032;2023-08-06T04:42:45;96516.81;;;19.74;90.80
40918;BME280;26644;50.248;19.032;2023-08-06T04:45:53;96514.50;;;19.80;90.77
40918;BME280;26644;50.248;19.032;2023-08-06T04:48:59;96508.13;;;19.83;90.11
40918;BME280;26644;50.248;19.032;2023-08-06T04:52:05;96493.44;;;19.82;89.92
40918;BME280;26644;50.248;19.032;2023-08-06T04:55:09;96510.94;;;19.90;89.54
40918;BME280;26644;50.248;19.032;2023-08-06T04:58:17;96497.81;;;19.87;89.75
40918;BME280;26644;50.248;19.032;2023-08-06T05:01:21;96494.69;;;19.96;89.71
40918;BME280;26644;50.248;19.032;2023-08-06T05:04:26;96503.47;;;20.01;89.18
40918;BME280;26644;50.248;19.032;2023-08-06T05:07:31;96503.50;;;20.05;89.16
40918;BME280;26644;50.248;19.032;2023-08-06T05:10:36;96489.19;;;20.06;88.79
40918;BME280;26644;50.248;19.032;2023-08-06T05:13:43;96493.97;;;20.09;88.24
40918;BME280;26644;50.248;19.032;2023-08-06T05:16:48;96478.84;;;20.10;88.42
40918;BME280;26644;50.248;19.032;2023-08-06T05:19:53;96479.25;;;20.09;87.95
40918;BME280;26644;50.248;19.032;2023-08-06T05:22:58;96471.69;;;20.09;88.32
40918;BME280;26644;50.248;19.032;2023-08-06T05:26:03;96475.25;;;20.06;87.62
40918;BME280;26644;50.248;19.032;2023-08-06T05:29:10;96456.91;;;20.02;88.55
40918;BME280;26644;50.248;19.032;2023-08-06T05:32:14;96462.13;;;20.03;88.54
40918;BME280;26644;50.248;19.032;2023-08-06T05:35:19;96446.53;;;19.95;88.58
40918;BME280;26644;50.248;19.032;2023-08-06T05:38:24;96461.72;;;20.05;89.23
40918;BME280;26644;50.248;19.032;2023-08-06T05:41:29;96466.91;;;20.06;88.68
40918;BME280;26644;50.248;19.032;2023-08-06T05:44:35;96452.94;;;19.96;87.93
40918;BME280;26644;50.248;19.032;2023-08-06T05:47:40;96445.34;;;19.92;87.47
40918;BME280;26644;50.248;19.032;2023-08-06T05:50:44;96440.13;;;19.84;87.09
40918;BME280;26644;50.248;19.032;2023-08-06T05:53:49;96440.13;;;19.84;86.14
40918;BME280;26644;50.248;19.032;2023-08-06T05:56:54;96434.16;;;19.78;86.46
40918;BME280;26644;50.248;19.032;2023-08-06T06:00:01;96416.56;;;19.67;86.17
40918;BME280;26644;50.248;19.032;2023-08-06T06:03:13;96430.06;;;19.61;85.08
40918;BME280;26644;50.248;19.032;2023-08-06T06:06:18;96441.16;;;19.57;84.53
40918;BME280;26644;50.248;19.032;2023-08-06T06:09:22;96433.56;;;19.51;84.53
40918;BME280;26644;50.248;19.032;2023-08-06T06:12:27;96427.94;;;19.40;84.07
40918;BME280;26644;50.248;19.032;2023-08-06T06:15:34;96417.53;;;19.30;83.65
40918;BME280;26644;50.248;19.032;2023-08-06T06:18:39;96412.25;;;19.17;82.48
40918;BME280;26644;50.248;19.032;2023-08-06T06:21:44;96411.31;;;19.02;82.26
40918;BME280;26644;50.248;19.032;2023-08-06T06:24:49;96416.41;;;18.89;83.13
40918;BME280;26644;50.248;19.032;2023-08-06T06:27:53;96396.81;;;18.75;83.17
40918;BME280;26644;50.248;19.032;2023-08-06T06:31:02;96389.13;;;18.61;84.07
40918;BME280;26644;50.248;19.032;2023-08-06T06:34:06;96418.28;;;18.40;83.92
40918;BME280;26644;50.248;19.032;2023-08-06T06:37:11;96378.69;;;18.13;84.78
40918;BME280;26644;50.248;19.032;2023-08-06T06:40:15;96379.75;;;18.01;85.42
40918;BME280;26644;50.248;19.032;2023-08-06T06:43:21;96374.41;;;17.85;86.47
40918;BME280;26644;50.248;19.032;2023-08-06T06:46:27;96362.28;;;17.67;86.93
40918;BME280;26644;50.248;19.032;2023-08-06T06:49:32;96360.53;;;17.55;87.47
40918;BME280;26644;50.248;19.032;2023-08-06T06:52:37;96368.91;;;17.58;88.09
40918;BME280;26644;50.248;19.032;2023-08-06T06:55:42;96330.69;;;17.48;87.91
40918;BME280;26644;50.248;19.032;2023-08-06T06:58:49;96323.53;;;17.43;87.99
40918;BME280;26644;50.248;19.032;2023-08-06T07:01:57;96307.59;;;17.37;88.31
40918;BME280;26644;50.248;19.032;2023-08-06T07:05:01;96304.75;;;17.33;88.78
40918;BME280;26644;50.248;19.032;2023-08-06T07:08:06;96311.41;;;17.28;88.91
40918;BME280;26644;50.248;19.032;2023-08-06T07:11:11;96337.13;;;17.25;88.19
40918;BME280;26644;50.248;19.032;2023-08-06T07:14:16;96364.06;;;17.25;88.56
40918;BME280;26644;50.248;19.032;2023-08-06T07:17:23;96355.53;;;17.10;87.84
40918;BME280;26644;50.248;19.032;2023-08-06T07:20:28;96395.63;;;17.17;87.82
40918;BME280;26644;50.248;19.032;2023-08-06T07:23:34;96410.97;;;17.10;87.75
40918;BME280;26644;50.248;19.032;2023-08-06T07:26:38;96422.28;;;16.98;88.12
40918;BME280;26644;50.248;19.032;2023-08-06T07:29:43;96419.00;;;16.92;87.37
40918;BME280;26644;50.248;19.032;2023-08-06T07:32:50;96406.28;;;16.88;88.96
40918;BME280;26644;50.248;19.032;2023-08-06T07:35:56;96384.81;;;16.85;89.54
40918;BME280;26644;50.248;19.032;2023-08-06T07:39:01;96399.88;;;16.84;89.18
40918;BME280;26644;50.248;19.032;2023-08-06T07:42:07;96418.75;;;16.78;88.95
40918;BME280;26644;50.248;19.032;2023-08-06T07:45:12;96419.06;;;16.73;88.53
40918;BME280;26644;50.248;19.032;2023-08-06T07:48:19;96396.41;;;16.67;88.92
40918;BME280;26644;50.248;19.032;2023-08-06T07:51:24;96407.88;;;16.66;88.50
40918;BME280;26644;50.248;19.032;2023-08-06T07:54:28;96424.38;;;16.58;87.80
40918;BME280;26644;50.248;19.032;2023-08-06T07:57:33;96444.06;;;16.53;88.00
40918;BME280;26644;50.248;19.032;2023-08-06T08:00:40;96431.28;;;16.49;88.36
40918;BME280;26644;50.248;19.032;2023-08-06T08:03:49;96418.09;;;16.42;89.25
40918;BME280;26644;50.248;19.032;2023-08-06T08:06:53;96399.56;;;16.46;89.46
40918;BME280;26644;50.248;19.032;2023-08-06T08:09:58;96391.16;;;16.39;88.79
40918;BME280;26644;50.248;19.032;2023-08-06T08:13:03;96414.94;;;16.43;89.25
40918;BME280;26644;50.248;19.032;2023-08-06T08:16:09;96405.09;;;16.46;89.18
40918;BME280;26644;50.248;19.032;2023-08-06T08:19:16;96389.97;;;16.40;88.78
40918;BME280;26644;50.248;19.032;2023-08-06T08:22:21;96406.44;;;16.52;89.24
40918;BME280;26644;50.248;19.032;2023-08-06T08:25:26;96399.00;;;16.56;88.65
40918;BME280;26644;50.248;19.032;2023-08-06T08:28:33;96411.81;;;16.65;88.90
40918;BME280;26644;50.248;19.032;2023-08-06T08:31:37;96400.00;;;16.68;88.68
40918;BME280;26644;50.248;19.032;2023-08-06T08:34:45;96389.47;;;16.77;88.19
40918;BME280;26644;50.248;19.032;2023-08-06T08:37:49;96391.56;;;16.84;87.88
40918;BME280;26644;50.248;19.032;2023-08-06T08:40:54;96398.63;;;16.81;85.03
40918;BME280;26644;50.248;19.032;2023-08-06T08:43:59;96412.50;;;16.81;86.53
40918;BME280;26644;50.248;19.032;2023-08-06T08:47:04;96427.94;;;16.82;85.92
40918;BME280;26644;50.248;19.032;2023-08-06T08:50:13;96420.75;;;16.77;86.12
40918;BME280;26644;50.248;19.032;2023-08-06T08:53:18;96393.47;;;16.80;86.09
40918;BME280;26644;50.248;19.032;2023-08-06T08:56:24;96399.50;;;16.85;85.69
40918;BME280;26644;50.248;19.032;2023-08-06T08:59:30;96411.00;;;16.87;85.01
40918;BME280;26644;50.248;19.032;2023-08-06T09:02:37;96399.13;;;16.87;85.51
40918;BME280;26644;50.248;19.032;2023-08-06T09:05:50;96388.91;;;16.91;85.41
40918;BME280;26644;50.248;19.032;2023-08-06T09:09:08;96384.81;;;16.85;84.98
40918;BME280;26644;50.248;19.032;2023-08-06T09:12:17;96405.22;;;16.96;84.37
40918;BME280;26644;50.248;19.032;2023-08-06T09:15:24;96404.91;;;17.01;84.50
40918;BME280;26644;50.248;19.032;2023-08-06T09:18:30;96407.66;;;17.01;84.38
40918;BME280;26644;50.248;19.032;2023-08-06T09:21:39;96384.13;;;16.91;83.72
40918;BME280;26644;50.248;19.032;2023-08-06T09:24:45;96371.34;;;16.83;83.79
40918;BME280;26644;50.248;19.032;2023-08-06T09:27:50;96369.00;;;16.85;83.20
40918;BME280;26644;50.248;19.032;2023-08-06T09:30:59;96367.72;;;16.79;84.22
40918;BME280;26644;50.248;19.032;2023-08-06T09:34:10;96379.47;;;16.72;84.40
40918;BME280;26644;50.248;19.032;2023-08-06T09:37:19;96374.31;;;16.71;84.90
40918;BME280;26644;50.248;19.032;2023-08-06T09:40:28;96378.31;;;16.73;84.78
40918;BME280;26644;50.248;19.032;2023-08-06T09:43:41;96388.97;;;16.71;84.44
40918;BME280;26644;50.248;19.032;2023-08-06T09:46:50;96387.00;;;16.72;84.22
40918;BME280;26644;50.248;19.032;2023-08-06T09:49:56;96384.63;;;16.70;83.96
40918;BME280;26644;50.248;19.032;2023-08-06T09:53:04;96386.19;;;16.71;84.47
40918;BME280;26644;50.248;19.032;2023-08-06T09:56:12;96380.16;;;16.66;83.98
40918;BME280;26644;50.248;19.032;2023-08-06T09:59:19;96400.19;;;16.79;84.88
40918;BME280;26644;50.248;19.032;2023-08-06T10:02:26;96402.13;;;16.78;84.04
40918;BME280;26644;50.248;19.032;2023-08-06T10:05:31;96396.97;;;16.76;83.69
40918;BME280;26644;50.248;19.032;2023-08-06T10:08:40;96411.97;;;16.75;83.67
40918;BME280;26644;50.248;19.032;2023-08-06T10:11:50;96403.13;;;16.66;83.86
40918;BME280;26644;50.248;19.032;2023-08-06T10:15:00;96419.50;;;16.75;83.76
40918;BME280;26644;50.248;19.032;2023-08-06T10:18:09;96420.66;;;16.74;83.26
40918;BME280;26644;50.248;19.032;2023-08-06T10:21:19;96419.03;;;16.69;83.66
40918;BME280;26644;50.248;19.032;2023-08-06T10:24:27;96432.00;;;16.65;84.19
40918;BME280;26644;50.248;19.032;2023-08-06T10:27:34;96428.59;;;16.52;83.74
40918;BME280;26644;50.248;19.032;2023-08-06T10:30:44;96443.97;;;16.50;83.75
40918;BME280;26644;50.248;19.032;2023-08-06T10:33:50;96427.94;;;16.39;84.05
40918;BME280;26644;50.248;19.032;2023-08-06T10:36:54;96442.66;;;16.43;84.58
40918;BME280;26644;50.248;19.032;2023-08-06T10:40:03;96444.63;;;16.43;84.58
40918;BME280;26644;50.248;19.032;2023-08-06T10:43:25;96444.19;;;16.41;85.24
40918;BME280;26644;50.248;19.032;2023-08-06T10:46:32;96433.84;;;16.38;85.39
40918;BME280;26644;50.248;19.032;2023-08-06T10:49:36;96427.72;;;16.28;85.62
40918;BME280;26644;50.248;19.032;2023-08-06T10:52:42;96425.84;;;16.33;85.75
40918;BME280;26644;50.248;19.032;2023-08-06T10:55:50;96434.50;;;16.31;85.84
40918;BME280;26644;50.248;19.032;2023-08-06T10:58:56;96447.13;;;16.28;85.88
40918;BME280;26644;50.248;19.032;2023-08-06T11:02:01;96454.91;;;16.23;86.09
40918;BME280;26644;50.248;19.032;2023-08-06T11:05:07;96460.47;;;16.23;85.96
40918;BME280;26644;50.248;19.032;2023-08-06T11:08:23;96458.84;;;16.22;86.30
40918;BME280;26644;50.248;19.032;2023-08-06T11:11:31;96465.13;;;16.19;86.60
40918;BME280;26644;50.248;19.032;2023-08-06T11:14:36;96458.06;;;16.21;86.69
40918;BME280;26644;50.248;19.032;2023-08-06T11:17:41;96455.72;;;16.23;86.04
40918;BME280;26644;50.248;19.032;2023-08-06T11:20:45;96464.50;;;16.29;86.01
40918;BME280;26644;50.248;19.032;2023-08-06T11:23:51;96458.47;;;16.23;85.60
40918;BME280;26644;50.248;19.032;2023-08-06T11:26:58;96453.59;;;16.17;85.49
40918;BME280;26644;50.248;19.032;2023-08-06T11:30:04;96461.69;;;16.06;85.69
40918;BME280;26644;50.248;19.032;2023-08-06T11:33:09;96457.31;;;16.05;86.50
40918;BME280;26644;50.248;19.032;2023-08-06T11:36:14;96447.69;;;15.99;86.60
40918;BME280;26644;50.248;19.032;2023-08-06T11:39:18;96459.72;;;16.06;87.07
40918;BME280;26644;50.248;19.032;2023-08-06T11:42:26;96451.88;;;16.08;86.58
40918;BME280;26644;50.248;19.032;2023-08-06T11:45:35;96468.69;;;16.19;87.20
40918;BME280;26644;50.248;19.032;2023-08-06T11:48:51;96469.47;;;16.20;86.79
40918;BME280;26644;50.248;19.032;2023-08-06T11:51:55;96473.13;;;16.24;86.48
40918;BME280;26644;50.248;19.032;2023-08-06T11:55:02;96469.63;;;16.27;86.49
40918;BME280;26644;50.248;19.032;2023-08-06T11:58:11;96472.47;;;16.31;85.77
40918;BME280;26644;50.248;19.032;2023-08-06T12:01:16;96463.72;;;16.28;85.37
40918;BME280;26644;50.248;19.032;2023-08-06T12:04:22;96464.22;;;16.34;84.78
40918;BME280;26644;50.248;19.032;2023-08-06T12:07:28;96482.59;;;16.42;85.12
40918;BME280;26644;50.248;19.032;2023-08-06T12:10:33;96482.53;;;16.39;84.88
40918;BME280;26644;50.248;19.032;2023-08-06T12:13:41;96496.78;;;16.41;84.88
40918;BME280;26644;50.248;19.032;2023-08-06T12:16:45;96501.16;;;16.42;84.75
40918;BME280;26644;50.248;19.032;2023-08-06T12:19:50;96507.53;;;16.42;85.11
40918;BME280;26644;50.248;19.032;2023-08-06T12:22:55;96509.19;;;16.47;84.96
40918;BME280;26644;50.248;19.032;2023-08-06T12:26:00;96515.69;;;16.55;84.62
40918;BME280;26644;50.248;19.032;2023-08-06T12:29:06;96518.22;;;16.64;84.49
40918;BME280;26644;50.248;19.032;2023-08-06T12:32:12;96518.75;;;16.69;84.51
40918;BME280;26644;50.248;19.032;2023-08-06T12:35:16;96515.91;;;16.66;84.33
40918;BME280;26644;50.248;19.032;2023-08-06T12:38:22;96524.22;;;16.66;84.27
40918;BME280;26644;50.248;19.032;2023-08-06T12:41:26;96531.75;;;16.65;84.45
40918;BME280;26644;50.248;19.032;2023-08-06T12:44:34;96532.03;;;16.60;84.16
40918;BME280;26644;50.248;19.032;2023-08-06T12:47:38;96532.81;;;16.60;84.51
40918;BME280;26644;50.248;19.032;2023-08-06T12:50:43;96529.63;;;16.58;84.55
40918;BME280;26644;50.248;19.032;2023-08-06T12:53:48;96523.72;;;16.60;84.37
40918;BME280;26644;50.248;19.032;2023-08-06T12:56:53;96522.59;;;16.65;84.68
40918;BME280;26644;50.248;19.032;2023-08-06T13:00:00;96506.06;;;16.68;84.66
40918;BME280;26644;50.248;19.032;2023-08-06T13:03:06;96519.03;;;16.84;84.18
40918;BME280;26644;50.248;19.032;2023-08-06T13:06:10;96539.59;;;17.06;82.77
40918;BME280;26644;50.248;19.032;2023-08-06T13:09:16;96534.75;;;17.22;82.13
40918;BME280;26644;50.248;19.032;2023-08-06T13:12:20;96524.31;;;17.39;82.11
40918;BME280;26644;50.248;19.032;2023-08-06T13:15:28;96530.91;;;17.54;81.15
40918;BME280;26644;50.248;19.032;2023-08-06T13:18:32;96531.44;;;17.59;81.20
40918;BME280;26644;50.248;19.032;2023-08-06T13:22:02;96539.22;;;17.77;80.40
40918;BME280;26644;50.248;19.032;2023-08-06T13:25:09;96548.25;;;17.97;80.06
40918;BME280;26644;50.248;19.032;2023-08-06T13:28:16;96538.09;;;18.08;79.29
40918;BME280;26644;50.248;19.032;2023-08-06T13:31:23;96535.78;;;18.14;79.04
40918;BME280;26644;50.248;19.032;2023-08-06T13:34:28;96550.13;;;18.16;77.94
40918;BME280;26644;50.248;19.032;2023-08-06T13:37:32;96553.56;;;18.09;77.69
40918;BME280;26644;50.248;19.032;2023-08-06T13:40:37;96558.31;;;18.09;78.31
40918;BME280;26644;50.248;19.032;2023-08-06T13:43:42;96561.81;;;18.02;77.35
40918;BME280;26644;50.248;19.032;2023-08-06T13:46:50;96556.84;;;17.88;77.78
40918;BME280;26644;50.248;19.032;2023-08-06T13:49:54;96565.69;;;17.71;77.87
40918;BME280;26644;50.248;19.032;2023-08-06T13:52:59;96571.00;;;17.56;78.63
40918;BME280;26644;50.248;19.032;2023-08-06T13:56:04;96578.19;;;17.38;79.66
40918;BME280;26644;50.248;19.032;2023-08-06T13:59:11;96572.59;;;17.34;80.21
40918;BME280;26644;50.248;19.032;2023-08-06T14:02:18;96570.44;;;17.24;80.31
40918;BME280;26644;50.248;19.032;2023-08-06T14:05:24;96584.06;;;17.33;80.58
40918;BME280;26644;50.248;19.032;2023-08-06T14:08:28;96581.41;;;17.40;80.30
40918;BME280;26644;50.248;19.032;2023-08-06T14:11:33;96578.84;;;17.51;80.47
40918;BME280;26644;50.248;19.032;2023-08-06T14:14:37;96567.06;;;17.57;79.40
40918;BME280;26644;50.248;19.032;2023-08-06T14:17:45;96584.38;;;17.74;79.83
40918;BME280;26644;50.248;19.032;2023-08-06T14:20:50;96586.41;;;17.77;79.66
40918;BME280;26644;50.248;19.032;2023-08-06T14:23:55;96607.16;;;17.87;78.40
40918;BME280;26644;50.248;19.032;2023-08-06T14:26:59;96595.81;;;17.72;78.47
40918;BME280;26644;50.248;19.032;2023-08-06T14:30:07;96619.59;;;17.70;78.50
40918;BME280;26644;50.248;19.032;2023-08-06T14:33:14;96622.16;;;17.59;78.98
40918;BME280;26644;50.248;19.032;2023-08-06T14:36:19;96622.47;;;17.54;79.17
40918;BME280;26644;50.248;19.032;2023-08-06T14:39:23;96620.34;;;17.47;79.09
40918;BME280;26644;50.248;19.032;2023-08-06T14:42:28;96629.00;;;17.42;79.66
40918;BME280;26644;50.248;19.032;2023-08-06T14:45:32;96626.88;;;17.35;79.86
40918;BME280;26644;50.248;19.032;2023-08-06T14:48:40;96630.38;;;17.32;80.45
40918;BME280;26644;50.248;19.032;2023-08-06T14:51:44;96631.06;;;17.25;80.62
40918;BME280;26644;50.248;19.032;2023-08-06T14:54:49;96615.25;;;17.06;81.09
40918;BME280;26644;50.248;19.032;2023-08-06T14:57:56;96629.50;;;17.05;81.68
40918;BME280;26644;50.248;19.032;2023-08-06T15:01:01;96642.03;;;16.99;81.99
40918;BME280;26644;50.248;19.032;2023-08-06T15:04:08;96620.81;;;16.87;82.58
40918;BME280;26644;50.248;19.032;2023-08-06T15:07:13;96630.38;;;16.89;82.93
40918;BME280;26644;50.248;19.032;2023-08-06T15:10:17;96616.94;;;16.91;83.18
40918;BME280;26644;50.248;19.032;2023-08-06T15:13:22;96616.34;;;17.02;82.61
40918;BME280;26644;50.248;19.032;2023-08-06T15:16:26;96613.00;;;17.12;82.63
40918;BME280;26644;50.248;19.032;2023-08-06T15:19:34;96623.34;;;17.15;81.71
40918;BME280;26644;50.248;19.032;2023-08-06T15:22:38;96613.06;;;17.16;81.76
40918;BME280;26644;50.248;19.032;2023-08-06T15:25:43;96611.69;;;17.06;81.27
40918;BME280;26644;50.248;19.032;2023-08-06T15:28:47;96619.13;;;17.02;81.32
40918;BME280;26644;50.248;19.032;2023-08-06T15:31:52;96630.28;;;17.05;81.57
40918;BME280;26644;50.248;19.032;2023-08-06T15:34:59;96626.50;;;16.94;80.91
40918;BME280;26644;50.248;19.032;2023-08-06T15:38:05;96641.16;;;16.94;80.87
40918;BME280;26644;50.248;19.032;2023-08-06T15:41:09;96657.22;;;16.85;80.24
40918;BME280;26644;50.248;19.032;2023-08-06T15:44:14;96663.47;;;16.82;81.14
40918;BME280;26644;50.248;19.032;2023-08-06T15:47:18;96647.28;;;16.65;81.13
40918;BME280;26644;50.248;19.032;2023-08-06T15:50:26;96684.34;;;16.76;80.74
40918;BME280;26644;50.248;19.032;2023-08-06T15:53:30;96681.47;;;16.72;80.66
40918;BME280;26644;50.248;19.032;2023-08-06T15:56:35;96695.63;;;16.67;80.48
40918;BME280;26644;50.248;19.032;2023-08-06T15:59:39;96707.84;;;16.66;80.37
40918;BME280;26644;50.248;19.032;2023-08-06T16:02:44;96711.44;;;16.67;80.45
40918;BME280;26644;50.248;19.032;2023-08-06T16:05:51;96719.38;;;16.68;80.54
40918;BME280;26644;50.248;19.032;2023-08-06T16:08:56;96714.13;;;16.63;80.51
40918;BME280;26644;50.248;19.032;2023-08-06T16:12:00;96728.84;;;16.67;80.70
40918;BME280;26644;50.248;19.032;2023-08-06T16:15:07;96734.75;;;16.66;80.97